Main page
METAR-TAF:

METAR-TAF

Airports :

Hale County Airport

Plainview, Texas, United States

latitude: 34-10-05N, longitude: 101-43-02W, elevation: 3372 ft

Current weather observation

The report was made 10 minutes ago, at 03:15 UTC
Wind 5 mph from the East
Temperature 72°F
Humidity 73%
Pressure 30.06 in. Hg
Visibility: 5 miles
Clear sky
haze

METAR: KPVW 200315Z AUTO 08004KT 5SM HZ CLR 22/17 A3006 RMK AO2 T02150170

Time: 22:25 (03:25 UTC)

Forecast

The report was made 4 hours and 5 minutes ago, at 23:20 UTC
Forecast valid from 20 at 00 UTC to 20 at 24 UTC
Wind 6 mph from variable directions
Visibility: 6 miles
Few clouds at a height of 25000 ft

TAF: KPVW 192320Z 2000/2024 VRB05KT P6SM FEW250

Weather observations and forecasts of more than 4000 airports (METAR and TAF reports).

The available stations are represented by yellow and red dots on the map.

Hover mouse over dot to see the name of the station.

Then click to see weather observations and forecasts.

To change the map : click on the green buttons with a black cross to zoom in, on the green button with a dash to zoom out, or on the green arrows for adjacent maps.


METAR-TAF: